createdAt,value
2023-04-28T00:00:42.647Z,4.80
2023-04-28T00:03:22.123Z,5.20
2023-04-28T00:05:50.358Z,5.00
2023-04-28T00:08:18.285Z,5.70
2023-04-28T00:10:46.059Z,5.30
2023-04-28T00:13:13.887Z,4.00
2023-04-28T00:15:42.036Z,5.70
2023-04-28T00:18:09.969Z,4.20
2023-04-28T00:20:37.908Z,4.40
2023-04-28T00:23:06.171Z,5.40
2023-04-28T00:25:33.969Z,4.00
2023-04-28T00:28:03.109Z,5.50
2023-04-28T00:30:31.837Z,6.30
2023-04-28T00:32:59.790Z,2.60
2023-04-28T00:35:29.207Z,3.70
2023-04-28T00:37:57.177Z,4.20
2023-04-28T00:40:34.211Z,5.40
2023-04-28T00:43:02.038Z,4.30
2023-04-28T00:45:31.120Z,6.20
2023-04-28T00:48:00.628Z,4.00
2023-04-28T00:50:28.833Z,5.50
2023-04-28T00:52:56.965Z,7.10
2023-04-28T00:55:25.736Z,4.20
2023-04-28T00:57:57.378Z,4.70
2023-04-28T01:00:25.302Z,6.30
2023-04-28T01:02:54.763Z,5.20
2023-04-28T01:05:26.495Z,4.10
2023-04-28T01:07:54.565Z,5.20
2023-04-28T01:10:23.959Z,4.80
2023-04-28T01:12:52.139Z,5.50
2023-04-28T01:15:20.752Z,5.20
2023-04-28T01:17:49.039Z,4.10
2023-04-28T01:20:16.883Z,5.30
2023-04-28T01:22:44.836Z,5.50
2023-04-28T01:25:12.713Z,6.80
2023-04-28T01:27:40.633Z,6.70
2023-04-28T01:30:09.283Z,4.20
2023-04-28T01:32:37.159Z,4.10
2023-04-28T01:35:05.746Z,5.70
2023-04-28T01:37:33.577Z,3.80
2023-04-28T01:40:01.438Z,6.60
2023-04-28T01:42:29.328Z,6.30
2023-04-28T01:44:57.879Z,7.80
2023-04-28T01:47:25.927Z,4.50
2023-04-28T01:49:53.749Z,3.40
2023-04-28T01:52:23.195Z,6.80
2023-04-28T01:54:51.226Z,3.80
2023-04-28T01:57:20.502Z,4.90
2023-04-28T01:59:50.339Z,5.20
2023-04-28T02:02:18.203Z,6.70
2023-04-28T02:04:46.291Z,5.30
2023-04-28T02:07:14.030Z,5.00
2023-04-28T02:09:41.998Z,6.00
2023-04-28T02:12:09.795Z,6.40
2023-04-28T02:14:37.680Z,8.20
2023-04-28T02:17:05.888Z,4.10
2023-04-28T02:19:33.794Z,5.30
2023-04-28T02:22:01.641Z,4.60
2023-04-28T02:24:29.631Z,4.00
2023-04-28T02:26:57.439Z,5.80
2023-04-28T02:29:27.872Z,6.70
2023-04-28T02:31:55.892Z,7.10
2023-04-28T02:34:23.780Z,5.60
2023-04-28T02:36:51.618Z,6.10
2023-04-28T02:39:22.074Z,4.00
2023-04-28T02:41:49.869Z,4.00
2023-04-28T02:44:18.138Z,4.80
2023-04-28T02:46:46.393Z,6.80
2023-04-28T02:49:14.331Z,6.10
2023-04-28T02:51:42.208Z,4.90
2023-04-28T02:54:09.969Z,3.10
2023-04-28T02:56:37.908Z,6.90
2023-04-28T02:59:05.826Z,6.50
2023-04-28T03:01:33.724Z,4.20
2023-04-28T03:04:02.040Z,5.90
2023-04-28T03:06:30.250Z,6.20
2023-04-28T03:08:58.146Z,5.80
2023-04-28T03:11:26.172Z,6.00
2023-04-28T03:13:54.000Z,9.90
2023-04-28T03:16:21.824Z,7.60
2023-04-28T03:18:49.806Z,5.90
2023-04-28T03:21:17.522Z,9.00
2023-04-28T03:23:45.678Z,8.40
2023-04-28T03:26:13.535Z,6.70
2023-04-28T03:28:41.468Z,5.40
2023-04-28T03:31:09.265Z,6.20
2023-04-28T03:33:37.164Z,6.30
2023-04-28T03:36:05.793Z,4.90
2023-04-28T03:38:33.626Z,5.50
2023-04-28T03:41:01.401Z,6.30
2023-04-28T03:43:29.373Z,4.90
2023-04-28T03:45:57.304Z,5.30
2023-04-28T03:48:25.694Z,8.10
2023-04-28T03:50:53.708Z,7.20
2023-04-28T03:53:21.810Z,5.20
2023-04-28T03:55:49.687Z,6.30
2023-04-28T03:58:17.519Z,5.10
2023-04-28T04:00:45.478Z,5.70
2023-04-28T04:03:13.789Z,5.50
2023-04-28T04:05:42.171Z,8.40
2023-04-28T04:08:10.533Z,5.80
2023-04-28T04:10:38.301Z,6.80
2023-04-28T04:13:06.184Z,7.50
2023-04-28T04:15:34.330Z,6.30
2023-04-28T04:18:02.500Z,4.50
2023-04-28T04:20:30.390Z,7.40
2023-04-28T04:22:58.214Z,5.00
2023-04-28T04:25:26.175Z,7.10
2023-04-28T04:27:53.985Z,5.80
2023-04-28T04:30:22.290Z,5.70
2023-04-28T04:32:50.578Z,7.80
2023-04-28T04:35:18.579Z,4.10
2023-04-28T04:37:46.516Z,7.90
2023-04-28T04:40:14.360Z,6.70
2023-04-28T04:42:42.165Z,7.60
2023-04-28T04:45:10.291Z,5.30
2023-04-28T04:47:38.972Z,7.20
2023-04-28T04:50:07.888Z,5.60
2023-04-28T04:52:35.742Z,8.10
2023-04-28T04:55:04.201Z,5.60
2023-04-28T04:57:32.139Z,5.80
2023-04-28T05:00:00.140Z,5.50
2023-04-28T05:02:27.991Z,5.10
2023-04-28T05:05:04.697Z,4.50
2023-04-28T05:07:36.913Z,7.40
2023-04-28T05:10:06.835Z,8.90
2023-04-28T05:12:34.583Z,8.80
2023-04-28T05:15:02.384Z,7.50
2023-04-28T05:17:30.955Z,6.80
2023-04-28T05:19:59.017Z,7.60
2023-04-28T05:22:27.185Z,6.00
2023-04-28T05:24:54.973Z,6.30
2023-04-28T05:27:22.944Z,7.00
2023-04-28T05:29:50.944Z,8.40
2023-04-28T05:32:18.893Z,5.70
2023-04-28T05:34:46.960Z,7.20
2023-04-28T05:37:14.767Z,6.30
2023-04-28T05:39:42.740Z,6.20
2023-04-28T05:42:19.634Z,8.30
2023-04-28T05:44:47.717Z,5.10
2023-04-28T05:47:15.518Z,8.90
2023-04-28T05:49:43.320Z,6.60
2023-04-28T05:52:11.514Z,4.50
2023-04-28T05:54:39.371Z,9.50
2023-04-28T05:57:07.546Z,8.00
2023-04-28T05:59:35.459Z,2.50
2023-04-28T06:02:03.413Z,7.00
2023-04-28T06:04:31.698Z,9.60
2023-04-28T06:06:59.964Z,6.60
2023-04-28T06:09:27.788Z,6.70
2023-04-28T06:11:55.629Z,6.30
2023-04-28T06:14:23.742Z,7.70
2023-04-28T06:16:51.843Z,7.00
2023-04-28T06:19:19.645Z,9.70
2023-04-28T06:21:50.381Z,4.40
2023-04-28T06:24:18.809Z,6.60
2023-04-28T06:26:47.092Z,7.30
2023-04-28T06:29:15.007Z,6.90
2023-04-28T06:31:43.093Z,6.30
2023-04-28T06:34:13.447Z,7.20
2023-04-28T06:36:44.955Z,5.90
2023-04-28T06:39:12.970Z,5.70
2023-04-28T06:41:41.353Z,5.20
2023-04-28T06:44:09.506Z,7.00
2023-04-28T06:46:37.806Z,7.00
2023-04-28T06:49:05.822Z,8.30
2023-04-28T06:51:34.614Z,6.20
2023-04-28T06:54:02.586Z,11.30
2023-04-28T06:56:30.447Z,5.00
2023-04-28T06:58:59.135Z,6.10
2023-04-28T07:01:27.139Z,8.90
2023-04-28T07:03:55.199Z,4.30
2023-04-28T07:06:23.697Z,3.30
2023-04-28T07:08:52.131Z,6.90
2023-04-28T07:11:20.516Z,7.40
2023-04-28T07:13:50.700Z,6.80
2023-04-28T07:16:19.383Z,5.40
2023-04-28T07:18:47.816Z,6.20
2023-04-28T07:21:18.134Z,6.50
2023-04-28T07:23:46.129Z,8.80
2023-04-28T07:26:16.565Z,12.90
2023-04-28T07:28:45.203Z,19.50
2023-04-28T07:31:13.151Z,6.90
2023-04-28T07:33:41.505Z,10.40
2023-04-28T07:36:09.578Z,8.30
2023-04-28T07:38:37.569Z,4.40
2023-04-28T07:41:11.171Z,7.50
2023-04-28T07:43:41.311Z,6.00
2023-04-28T07:46:10.126Z,5.80
2023-04-28T07:48:38.260Z,2.90
2023-04-28T07:51:06.433Z,6.20
2023-04-28T07:53:34.658Z,5.30
2023-04-28T07:56:02.779Z,7.50
2023-04-28T07:58:31.953Z,5.20
2023-04-28T08:01:00.058Z,7.00
2023-04-28T08:03:28.194Z,5.70
2023-04-28T08:05:56.707Z,10.80
2023-04-28T08:08:25.149Z,8.20
2023-04-28T08:10:53.170Z,5.80
2023-04-28T08:13:21.186Z,5.50
2023-04-28T08:15:49.667Z,4.00
2023-04-28T08:18:17.694Z,4.10
2023-04-28T08:20:45.526Z,4.40
2023-04-28T08:23:13.368Z,3.70
2023-04-28T08:25:41.857Z,5.90
2023-04-28T08:28:10.265Z,4.60
2023-04-28T08:30:38.992Z,12.50
2023-04-28T08:33:07.660Z,5.90
2023-04-28T08:35:35.973Z,4.40
2023-04-28T08:38:03.864Z,7.70
2023-04-28T08:40:31.805Z,5.70
2023-04-28T08:43:00.728Z,3.90
2023-04-28T08:45:32.050Z,3.70
2023-04-28T08:48:04.063Z,5.20
2023-04-28T08:50:34.925Z,4.00
2023-04-28T08:53:08.120Z,4.40
2023-04-28T08:55:36.825Z,6.70
2023-04-28T08:58:05.299Z,4.70
2023-04-28T09:00:33.370Z,6.10
2023-04-28T09:03:02.060Z,8.70
2023-04-28T09:05:30.306Z,3.40
2023-04-28T09:07:58.578Z,3.10
2023-04-28T09:10:27.988Z,4.30
2023-04-28T09:12:57.197Z,3.20
2023-04-28T09:15:45.377Z,4.80
2023-04-28T09:18:15.817Z,6.00
2023-04-28T09:20:44.958Z,2.80
2023-04-28T09:23:22.482Z,3.60
2023-04-28T09:25:57.623Z,4.10
2023-04-28T09:28:25.495Z,6.10
2023-04-28T09:30:54.727Z,3.90
2023-04-28T09:33:22.858Z,5.10
2023-04-28T09:35:51.519Z,6.30
2023-04-28T09:38:22.239Z,4.40
2023-04-28T09:40:59.080Z,3.90
2023-04-28T09:43:35.405Z,4.10
2023-04-28T09:46:06.108Z,8.50
2023-04-28T09:48:38.105Z,6.00
2023-04-28T09:51:08.856Z,5.40
2023-04-28T09:53:37.726Z,4.10
2023-04-28T09:56:06.587Z,7.70
2023-04-28T09:58:39.988Z,5.50
2023-04-28T10:01:11.868Z,8.70
2023-04-28T10:03:43.229Z,6.20
2023-04-28T10:06:11.209Z,7.70
2023-04-28T10:08:40.338Z,9.20
2023-04-28T10:11:10.166Z,5.40
2023-04-28T10:13:38.146Z,7.50
2023-04-28T10:16:08.311Z,10.60
2023-04-28T10:18:37.647Z,7.40
2023-04-28T10:21:08.067Z,7.00
2023-04-28T10:24:22.568Z,4.20
2023-04-28T10:27:09.466Z,6.50
2023-04-28T10:29:37.835Z,5.80
2023-04-28T10:32:20.062Z,5.00
2023-04-28T10:34:48.344Z,4.80
2023-04-28T10:37:18.548Z,4.40
2023-04-28T10:40:34.488Z,6.20
2023-04-28T10:43:04.200Z,4.30
2023-04-28T10:45:56.520Z,7.20
2023-04-28T10:48:34.887Z,5.00
2023-04-28T10:51:13.364Z,5.10
2023-04-28T10:53:44.391Z,4.30
2023-04-28T10:56:26.683Z,4.50
2023-04-28T10:58:58.842Z,5.30
2023-04-28T11:01:37.044Z,7.90
2023-04-28T11:04:17.057Z,4.80
2023-04-28T11:06:47.277Z,4.30
2023-04-28T11:09:15.278Z,4.20
2023-04-28T11:12:02.259Z,5.30
2023-04-28T11:14:36.326Z,5.30
2023-04-28T11:17:11.499Z,5.60
2023-04-28T11:19:42.872Z,5.80
2023-04-28T11:22:20.345Z,5.30
2023-04-28T11:25:05.410Z,6.60
2023-04-28T11:27:34.740Z,4.50
2023-04-28T11:30:02.721Z,4.00
2023-04-28T11:32:35.897Z,6.10
2023-04-28T11:35:04.934Z,5.00
2023-04-28T11:37:32.917Z,5.40
2023-04-28T11:40:12.207Z,5.00
2023-04-28T11:42:49.537Z,7.70
2023-04-28T11:45:17.811Z,4.20
2023-04-28T11:47:45.604Z,5.10
2023-04-28T11:50:19.328Z,7.00
2023-04-28T11:52:53.597Z,6.10
2023-04-28T11:55:22.124Z,6.50
2023-04-28T11:58:22.635Z,5.90
2023-04-28T12:01:13.028Z,4.70
2023-04-28T12:03:48.358Z,6.90
2023-04-28T12:06:19.565Z,5.50
2023-04-28T12:08:49.230Z,4.70
2023-04-28T12:11:20.068Z,6.40
2023-04-28T12:14:09.043Z,4.10
2023-04-28T12:16:44.261Z,6.10
2023-04-28T12:19:15.398Z,5.10
2023-04-28T12:21:44.131Z,5.60
2023-04-28T12:24:21.415Z,3.90
2023-04-28T12:26:49.339Z,7.40
2023-04-28T12:29:40.490Z,6.10
2023-04-28T12:32:11.164Z,6.80
2023-04-28T12:34:42.210Z,6.40
2023-04-28T12:37:10.275Z,5.00
2023-04-28T12:39:41.713Z,4.70
2023-04-28T12:42:09.781Z,5.70
2023-04-28T12:44:38.651Z,5.10
2023-04-28T12:47:08.854Z,5.10
2023-04-28T12:49:37.371Z,5.30
2023-04-28T12:52:06.986Z,7.60
2023-04-28T12:54:34.819Z,5.20
2023-04-28T12:57:05.302Z,10.50
2023-04-28T12:59:33.151Z,4.30
2023-04-28T13:02:01.084Z,4.70
2023-04-28T13:04:29.094Z,5.20
2023-04-28T13:07:13.321Z,5.00
2023-04-28T13:09:50.342Z,4.80
2023-04-28T13:12:19.977Z,6.10
2023-04-28T13:14:47.739Z,4.80
2023-04-28T13:17:15.642Z,4.80
2023-04-28T13:19:44.035Z,5.30
2023-04-28T13:22:12.470Z,5.70
2023-04-28T13:24:40.237Z,4.30
2023-04-28T13:27:10.372Z,6.20
2023-04-28T13:29:38.538Z,5.20
2023-04-28T13:32:06.848Z,6.50
2023-04-28T13:34:35.117Z,5.80
2023-04-28T13:37:03.498Z,5.40
2023-04-28T13:39:31.994Z,4.90
2023-04-28T13:42:00.490Z,6.50
2023-04-28T13:44:28.903Z,5.30
2023-04-28T13:46:57.334Z,5.20
2023-04-28T13:49:25.276Z,4.80
2023-04-28T13:51:53.390Z,4.80
2023-04-28T13:54:21.580Z,4.80
2023-04-28T13:56:49.522Z,5.90
2023-04-28T13:59:17.843Z,5.70
2023-04-28T14:01:46.619Z,5.80
2023-04-28T14:04:15.353Z,5.10
2023-04-28T14:06:43.990Z,6.50
2023-04-28T14:09:12.454Z,6.00
2023-04-28T14:11:40.640Z,6.00
2023-04-28T14:14:08.596Z,6.10
2023-04-28T14:16:36.498Z,6.20
2023-04-28T14:19:04.475Z,5.20
2023-04-28T14:21:33.387Z,7.70
2023-04-28T14:24:01.407Z,7.10
2023-04-28T14:26:29.300Z,4.70
2023-04-28T14:28:57.164Z,8.00
2023-04-28T14:31:24.978Z,6.70
2023-04-28T14:33:52.767Z,5.80
2023-04-28T14:36:20.790Z,7.30
2023-04-28T14:38:48.695Z,7.30
2023-04-28T14:41:16.437Z,5.90
2023-04-28T14:43:45.137Z,7.40
2023-04-28T14:46:13.175Z,6.60
2023-04-28T14:48:41.253Z,8.60
2023-04-28T14:51:09.815Z,8.40
2023-04-28T14:53:37.713Z,7.10
2023-04-28T14:56:17.851Z,11.10
2023-04-28T14:58:48.004Z,7.90
2023-04-28T15:01:16.153Z,7.50
2023-04-28T15:03:44.311Z,11.60
2023-04-28T15:06:13.368Z,9.90
2023-04-28T15:08:41.472Z,9.30
2023-04-28T15:11:09.657Z,8.90
2023-04-28T15:13:39.150Z,8.30
2023-04-28T15:16:08.417Z,8.50
2023-04-28T15:18:36.310Z,10.60
2023-04-28T15:21:04.487Z,8.00
2023-04-28T15:23:32.566Z,8.20
2023-04-28T15:26:02.919Z,9.10
2023-04-28T15:28:35.182Z,7.80
2023-04-28T15:31:06.031Z,11.90
2023-04-28T15:33:34.887Z,9.50
2023-04-28T15:36:02.684Z,9.40
2023-04-28T15:38:31.830Z,11.00
2023-04-28T15:41:00.067Z,9.80
2023-04-28T15:43:28.445Z,11.20
2023-04-28T15:45:57.045Z,16.40
2023-04-28T15:48:24.910Z,11.20
2023-04-28T15:50:52.833Z,9.50
2023-04-28T15:53:21.655Z,9.80
2023-04-28T15:55:49.621Z,9.80
2023-04-28T15:58:17.487Z,11.70
2023-04-28T16:00:46.376Z,8.60
2023-04-28T16:03:14.335Z,14.10
2023-04-28T16:05:42.424Z,13.80
2023-04-28T16:08:10.538Z,10.50
2023-04-28T16:10:41.349Z,10.40
2023-04-28T16:13:11.476Z,13.80
2023-04-28T16:15:39.359Z,11.10
2023-04-28T16:18:08.215Z,12.40
2023-04-28T16:20:37.128Z,10.60
2023-04-28T16:23:13.992Z,10.40
2023-04-28T16:25:42.539Z,13.30
2023-04-28T16:28:11.500Z,10.50
2023-04-28T16:30:39.419Z,12.80
2023-04-28T16:33:08.856Z,15.80
2023-04-28T16:35:36.950Z,11.90
2023-04-28T16:38:05.414Z,9.80
2023-04-28T16:40:33.464Z,10.60
2023-04-28T16:43:01.514Z,14.40
2023-04-28T16:45:29.329Z,14.10
2023-04-28T16:47:57.419Z,15.00
2023-04-28T16:50:25.476Z,10.80
2023-04-28T16:52:53.482Z,13.10
2023-04-28T16:55:21.456Z,9.70
2023-04-28T16:57:52.291Z,9.40
2023-04-28T17:00:21.085Z,11.20
2023-04-28T17:02:49.235Z,10.40
2023-04-28T17:05:17.529Z,9.90
2023-04-28T17:07:45.542Z,9.40
2023-04-28T17:10:13.870Z,9.50
2023-04-28T17:12:42.914Z,13.60
2023-04-28T17:15:17.149Z,11.80
2023-04-28T17:17:50.962Z,13.70
2023-04-28T17:20:20.319Z,9.30
2023-04-28T17:22:50.466Z,13.20
2023-04-28T17:25:19.064Z,12.80
2023-04-28T17:27:48.423Z,13.10
2023-04-28T17:30:28.226Z,13.50
2023-04-28T17:33:25.553Z,8.80
2023-04-28T17:35:56.257Z,11.00
2023-04-28T17:38:28.025Z,9.90
2023-04-28T17:41:13.407Z,13.90
2023-04-28T17:43:47.406Z,13.60
2023-04-28T17:46:24.053Z,10.50
2023-04-28T17:48:52.398Z,10.00
2023-04-28T17:51:21.132Z,10.40
2023-04-28T17:53:56.917Z,9.80
2023-04-28T17:56:29.757Z,12.50
2023-04-28T17:58:57.752Z,11.20
2023-04-28T18:01:25.595Z,10.90
2023-04-28T18:03:54.896Z,11.70
2023-04-28T18:06:22.894Z,13.30
2023-04-28T18:08:50.928Z,12.00
2023-04-28T18:11:18.788Z,10.60
2023-04-28T18:13:46.720Z,12.20
2023-04-28T18:16:15.242Z,10.80
2023-04-28T18:18:43.249Z,10.90
2023-04-28T18:21:11.202Z,12.00
2023-04-28T18:23:39.519Z,10.30
2023-04-28T18:26:07.913Z,11.90
2023-04-28T18:28:36.943Z,11.00
2023-04-28T18:31:06.465Z,10.90
2023-04-28T18:33:34.315Z,13.10
2023-04-28T18:36:05.472Z,13.30
2023-04-28T18:38:36.689Z,13.10
2023-04-28T18:41:16.826Z,11.40
2023-04-28T18:43:45.009Z,16.10
2023-04-28T18:46:13.914Z,15.10
2023-04-28T18:48:42.280Z,10.20
2023-04-28T18:51:10.581Z,10.50
2023-04-28T18:53:38.601Z,11.80
2023-04-28T18:56:06.821Z,13.40
2023-04-28T18:58:37.341Z,11.50
2023-04-28T19:01:05.364Z,10.40
2023-04-28T19:03:33.492Z,10.30
2023-04-28T19:06:01.976Z,9.90
2023-04-28T19:08:30.019Z,13.50
2023-04-28T19:10:59.004Z,9.90
2023-04-28T19:13:27.110Z,11.80
2023-04-28T19:15:56.402Z,12.30
2023-04-28T19:18:24.372Z,9.60
2023-04-28T19:21:03.277Z,10.90
2023-04-28T19:23:35.190Z,10.70
2023-04-28T19:26:03.222Z,11.00
2023-04-28T19:28:31.367Z,11.00
2023-04-28T19:30:59.628Z,10.80
2023-04-28T19:33:28.593Z,11.80
2023-04-28T19:35:56.821Z,10.20
2023-04-28T19:38:24.732Z,10.00
2023-04-28T19:41:03.161Z,10.50
2023-04-28T19:43:31.712Z,8.60
2023-04-28T19:45:59.653Z,11.90
2023-04-28T19:48:27.477Z,7.60
2023-04-28T19:50:55.550Z,11.60
2023-04-28T19:53:23.597Z,9.60
2023-04-28T19:55:51.436Z,8.60
2023-04-28T19:58:19.288Z,8.90
2023-04-28T20:00:48.105Z,9.80
2023-04-28T20:03:17.347Z,14.60
2023-04-28T20:05:45.369Z,12.00
2023-04-28T20:08:13.270Z,11.90
2023-04-28T20:10:41.304Z,10.10
2023-04-28T20:13:09.203Z,9.70
2023-04-28T20:15:37.905Z,10.40
2023-04-28T20:18:05.831Z,11.10
2023-04-28T20:20:33.647Z,9.60
2023-04-28T20:23:01.482Z,10.50
2023-04-28T20:25:29.292Z,12.10
2023-04-28T20:27:57.238Z,11.20
2023-04-28T20:30:25.484Z,12.80
2023-04-28T20:32:53.426Z,11.00
2023-04-28T20:35:23.056Z,14.60
2023-04-28T20:37:50.860Z,13.60
2023-04-28T20:40:18.886Z,15.40
2023-04-28T20:42:46.689Z,13.40
2023-04-28T20:45:14.695Z,13.20
2023-04-28T20:47:43.236Z,19.50
2023-04-28T20:50:11.851Z,16.40
2023-04-28T20:52:39.700Z,16.70
2023-04-28T20:55:12.824Z,18.90
2023-04-28T20:57:40.915Z,19.80
2023-04-28T21:00:11.066Z,17.80
2023-04-28T21:02:39.089Z,20.70
2023-04-28T21:05:09.249Z,22.10
2023-04-28T21:07:37.295Z,16.80
2023-04-28T21:10:09.283Z,25.20
2023-04-28T21:12:48.691Z,19.90
2023-04-28T21:15:24.239Z,17.20
2023-04-28T21:18:28.389Z,19.90
2023-04-28T21:20:57.506Z,19.80
2023-04-28T21:23:25.498Z,17.30
2023-04-28T21:25:53.541Z,16.20
2023-04-28T21:28:21.472Z,16.80
2023-04-28T21:30:53.045Z,16.60
2023-04-28T21:33:24.639Z,18.70
2023-04-28T21:35:52.694Z,19.50
2023-04-28T21:38:20.738Z,19.90
2023-04-28T21:40:49.318Z,16.60
2023-04-28T21:43:17.170Z,19.70
2023-04-28T21:45:45.235Z,18.30
2023-04-28T21:48:13.148Z,19.10
2023-04-28T21:50:41.268Z,16.50
2023-04-28T21:53:15.233Z,18.10
2023-04-28T21:55:44.855Z,13.80
2023-04-28T21:58:13.415Z,18.30
2023-04-28T22:00:48.033Z,16.40
2023-04-28T22:03:20.570Z,16.20
2023-04-28T22:05:55.437Z,21.90
2023-04-28T22:08:23.379Z,18.20
2023-04-28T22:10:53.915Z,20.70
2023-04-28T22:13:23.884Z,17.40
2023-04-28T22:15:56.391Z,19.20
2023-04-28T22:18:24.376Z,19.40
2023-04-28T22:20:52.988Z,20.00
2023-04-28T22:23:20.810Z,15.00
2023-04-28T22:25:49.469Z,19.40
2023-04-28T22:28:17.491Z,14.90
2023-04-28T22:30:47.614Z,17.80
2023-04-28T22:33:15.635Z,16.80
2023-04-28T22:35:43.433Z,18.10
2023-04-28T22:38:11.244Z,17.60
2023-04-28T22:40:39.071Z,16.50
2023-04-28T22:43:06.836Z,16.50
2023-04-28T22:45:34.615Z,17.20
2023-04-28T22:48:02.385Z,13.90
2023-04-28T22:50:31.527Z,14.90
2023-04-28T22:53:04.082Z,16.40
2023-04-28T22:55:32.800Z,13.00
2023-04-28T22:58:00.611Z,16.90
2023-04-28T23:00:28.830Z,16.10
2023-04-28T23:02:56.700Z,17.10
2023-04-28T23:05:24.559Z,14.10
2023-04-28T23:07:52.325Z,14.50
2023-04-28T23:10:20.128Z,17.70
2023-04-28T23:12:48.037Z,16.30
2023-04-28T23:15:15.865Z,14.50
2023-04-28T23:17:43.766Z,15.90
2023-04-28T23:20:12.266Z,15.50
2023-04-28T23:22:40.096Z,14.20
2023-04-28T23:25:08.887Z,15.00
2023-04-28T23:27:37.349Z,16.20
2023-04-28T23:30:06.252Z,15.20
2023-04-28T23:32:34.182Z,15.20
2023-04-28T23:35:02.134Z,13.20
2023-04-28T23:37:30.154Z,15.60
2023-04-28T23:39:57.929Z,14.40
2023-04-28T23:42:27.094Z,15.30
2023-04-28T23:44:54.895Z,17.10
2023-04-28T23:47:23.106Z,14.00
2023-04-28T23:49:51.143Z,15.70
2023-04-28T23:52:19.517Z,15.00
2023-04-28T23:54:47.331Z,13.90
2023-04-28T23:57:15.103Z,13.10
2023-04-28T23:59:42.881Z,16.10
